sensor_id;sensor_type;location;lat;lon;timestamp;pressure;altitude;pressure_sealevel;temperature;humidity
63009;BME280;49099;28.428;-16.488;2023-06-26T00:01:33;98271.38;;;23.32;63.89
63009;BME280;49099;28.428;-16.488;2023-06-26T00:04:01;98276.00;;;23.31;63.26
63009;BME280;49099;28.428;-16.488;2023-06-26T00:06:28;98273.66;;;23.30;63.60
63009;BME280;49099;28.428;-16.488;2023-06-26T00:08:56;98277.41;;;23.25;62.95
63009;BME280;49099;28.428;-16.488;2023-06-26T00:11:29;98264.00;;;23.13;63.15
63009;BME280;49099;28.428;-16.488;2023-06-26T00:14:01;98271.75;;;23.15;63.06
63009;BME280;49099;28.428;-16.488;2023-06-26T00:16:28;98264.78;;;23.14;63.19
63009;BME280;49099;28.428;-16.488;2023-06-26T00:18:55;98271.03;;;23.18;63.27
63009;BME280;49099;28.428;-16.488;2023-06-26T00:21:22;98270.41;;;23.24;63.03
63009;BME280;49099;28.428;-16.488;2023-06-26T00:23:49;98277.50;;;23.29;62.85
63009;BME280;49099;28.428;-16.488;2023-06-26T00:26:17;98272.94;;;23.33;62.38
63009;BME280;49099;28.428;-16.488;2023-06-26T00:28:44;98269.53;;;23.36;62.48
63009;BME280;49099;28.428;-16.488;2023-06-26T00:31:11;98270.69;;;23.35;62.21
63009;BME280;49099;28.428;-16.488;2023-06-26T00:33:38;98267.97;;;23.35;62.00
63009;BME280;49099;28.428;-16.488;2023-06-26T00:36:06;98272.94;;;23.33;62.37
63009;BME280;49099;28.428;-16.488;2023-06-26T00:38:33;98260.97;;;23.34;62.03
63009;BME280;49099;28.428;-16.488;2023-06-26T00:41:00;98264.91;;;23.37;62.02
63009;BME280;49099;28.428;-16.488;2023-06-26T00:43:27;98264.97;;;23.40;62.08
63009;BME280;49099;28.428;-16.488;2023-06-26T00:45:54;98258.41;;;23.41;61.89
63009;BME280;49099;28.428;-16.488;2023-06-26T00:48:22;98256.44;;;23.38;61.47
63009;BME280;49099;28.428;-16.488;2023-06-26T00:50:49;98256.00;;;23.36;61.62
63009;BME280;49099;28.428;-16.488;2023-06-26T00:53:16;98251.28;;;23.33;61.63
63009;BME280;49099;28.428;-16.488;2023-06-26T00:55:44;98242.75;;;23.31;61.51
63009;BME280;49099;28.428;-16.488;2023-06-26T00:58:11;98237.31;;;23.31;61.94
63009;BME280;49099;28.428;-16.488;2023-06-26T01:00:39;98246.59;;;23.30;61.99
63009;BME280;49099;28.428;-16.488;2023-06-26T01:03:06;98235.75;;;23.30;61.67
63009;BME280;49099;28.428;-16.488;2023-06-26T01:05:34;98234.19;;;23.29;61.33
63009;BME280;49099;28.428;-16.488;2023-06-26T01:08:02;98232.63;;;23.28;61.62
63009;BME280;49099;28.428;-16.488;2023-06-26T01:10:30;98226.34;;;23.24;61.66
63009;BME280;49099;28.428;-16.488;2023-06-26T01:12:58;98220.00;;;23.16;61.93
63009;BME280;49099;28.428;-16.488;2023-06-26T01:15:25;98225.19;;;23.05;61.77
63009;BME280;49099;28.428;-16.488;2023-06-26T01:17:52;98224.66;;;23.00;62.15
63009;BME280;49099;28.428;-16.488;2023-06-26T01:20:20;98207.38;;;23.04;62.11
63009;BME280;49099;28.428;-16.488;2023-06-26T01:22:58;98214.94;;;23.15;61.89
63009;BME280;49099;28.428;-16.488;2023-06-26T01:28:10;98202.56;;;23.14;61.99
63009;BME280;49099;28.428;-16.488;2023-06-26T01:30:41;98209.09;;;23.13;61.80
63009;BME280;49099;28.428;-16.488;2023-06-26T01:33:10;98193.84;;;23.04;62.06
63009;BME280;49099;28.428;-16.488;2023-06-26T01:35:38;98199.69;;;23.06;61.82
63009;BME280;49099;28.428;-16.488;2023-06-26T01:38:19;98202.66;;;23.01;61.73
63009;BME280;49099;28.428;-16.488;2023-06-26T01:40:47;98202.94;;;22.96;61.85
63009;BME280;49099;28.428;-16.488;2023-06-26T01:52:00;98188.56;;;22.92;61.54
63009;BME280;49099;28.428;-16.488;2023-06-26T01:54:34;98188.38;;;22.85;61.79
63009;BME280;49099;28.428;-16.488;2023-06-26T01:57:02;98182.09;;;22.81;61.86
63009;BME280;49099;28.428;-16.488;2023-06-26T01:59:32;98186.78;;;22.84;61.71
63009;BME280;49099;28.428;-16.488;2023-06-26T02:02:01;98183.13;;;22.92;61.78
63009;BME280;49099;28.428;-16.488;2023-06-26T02:04:29;98186.44;;;23.01;61.75
63009;BME280;49099;28.428;-16.488;2023-06-26T02:06:56;98185.03;;;23.07;61.57
63009;BME280;49099;28.428;-16.488;2023-06-26T02:09:23;98191.31;;;23.12;61.85
63009;BME280;49099;28.428;-16.488;2023-06-26T02:11:50;98185.03;;;23.07;61.70
63009;BME280;49099;28.428;-16.488;2023-06-26T02:14:17;98177.19;;;23.02;62.05
63009;BME280;49099;28.428;-16.488;2023-06-26T02:16:44;98184.09;;;23.00;61.85
63009;BME280;49099;28.428;-16.488;2023-06-26T02:19:11;98172.53;;;23.03;61.86
63009;BME280;49099;28.428;-16.488;2023-06-26T02:21:38;98170.50;;;22.96;61.64
63009;BME280;49099;28.428;-16.488;2023-06-26T02:24:06;98174.66;;;22.94;61.36
63009;BME280;49099;28.428;-16.488;2023-06-26T02:26:33;98178.16;;;22.94;61.02
63009;BME280;49099;28.428;-16.488;2023-06-26T02:29:00;98166.19;;;22.95;61.30
63009;BME280;49099;28.428;-16.488;2023-06-26T02:31:27;98172.41;;;22.96;61.01
63009;BME280;49099;28.428;-16.488;2023-06-26T02:33:54;98167.09;;;22.84;61.02
63009;BME280;49099;28.428;-16.488;2023-06-26T02:36:21;98158.88;;;22.80;60.79
63009;BME280;49099;28.428;-16.488;2023-06-26T02:38:49;98168.06;;;22.75;61.05
63009;BME280;49099;28.428;-16.488;2023-06-26T02:41:16;98170.94;;;22.67;60.82
63009;BME280;49099;28.428;-16.488;2023-06-26T02:43:43;98170.00;;;22.59;61.08
63009;BME280;49099;28.428;-16.488;2023-06-26T02:46:10;98165.22;;;22.52;60.96
63009;BME280;49099;28.428;-16.488;2023-06-26T02:48:37;98160.06;;;22.47;60.88
63009;BME280;49099;28.428;-16.488;2023-06-26T02:51:04;98158.78;;;22.41;60.87
63009;BME280;49099;28.428;-16.488;2023-06-26T02:53:31;98157.47;;;22.35;61.09
63009;BME280;49099;28.428;-16.488;2023-06-26T02:55:59;98150.66;;;22.25;61.34
63009;BME280;49099;28.428;-16.488;2023-06-26T02:58:26;98158.50;;;22.31;61.39
63009;BME280;49099;28.428;-16.488;2023-06-26T03:00:53;98148.75;;;22.26;61.06
63009;BME280;49099;28.428;-16.488;2023-06-26T03:03:20;98147.78;;;22.34;61.26
63009;BME280;49099;28.428;-16.488;2023-06-26T03:05:47;98152.06;;;22.35;61.19
63009;BME280;49099;28.428;-16.488;2023-06-26T03:08:15;98154.47;;;22.40;61.10
63009;BME280;49099;28.428;-16.488;2023-06-26T03:10:43;98148.09;;;22.48;60.96
63009;BME280;49099;28.428;-16.488;2023-06-26T03:13:10;98153.84;;;22.63;60.89
63009;BME280;49099;28.428;-16.488;2023-06-26T03:15:37;98153.84;;;22.63;61.07
63009;BME280;49099;28.428;-16.488;2023-06-26T03:18:04;98143.50;;;22.65;61.01
63009;BME280;49099;28.428;-16.488;2023-06-26T03:20:31;98140.94;;;22.72;60.69
63009;BME280;49099;28.428;-16.488;2023-06-26T03:22:58;98135.97;;;22.74;60.67
63009;BME280;49099;28.428;-16.488;2023-06-26T03:25:26;98140.13;;;22.71;60.42
63009;BME280;49099;28.428;-16.488;2023-06-26T03:27:53;98130.41;;;22.67;60.52
63009;BME280;49099;28.428;-16.488;2023-06-26T03:30:20;98139.66;;;22.66;60.47
63009;BME280;49099;28.428;-16.488;2023-06-26T03:32:47;98122.19;;;22.63;60.57
63009;BME280;49099;28.428;-16.488;2023-06-26T03:35:14;98138.50;;;22.67;60.42
63009;BME280;49099;28.428;-16.488;2023-06-26T03:37:41;98129.31;;;22.71;60.69
63009;BME280;49099;28.428;-16.488;2023-06-26T03:40:09;98123.31;;;22.78;60.50
63009;BME280;49099;28.428;-16.488;2023-06-26T03:42:36;98136.56;;;22.83;60.17
63009;BME280;49099;28.428;-16.488;2023-06-26T03:45:04;98134.31;;;22.85;60.15
63009;BME280;49099;28.428;-16.488;2023-06-26T03:47:31;98139.16;;;22.79;60.14
63009;BME280;49099;28.428;-16.488;2023-06-26T03:49:58;98129.84;;;22.77;60.26
63009;BME280;49099;28.428;-16.488;2023-06-26T03:52:25;98127.88;;;22.74;60.24
63009;BME280;49099;28.428;-16.488;2023-06-26T03:54:52;98135.50;;;22.72;60.36
63009;BME280;49099;28.428;-16.488;2023-06-26T03:57:19;98135.44;;;22.68;60.32
63009;BME280;49099;28.428;-16.488;2023-06-26T03:59:46;98139.34;;;22.71;60.27
63009;BME280;49099;28.428;-16.488;2023-06-26T04:02:14;98147.16;;;22.72;60.32
63009;BME280;49099;28.428;-16.488;2023-06-26T04:04:41;98142.41;;;22.69;60.22
63009;BME280;49099;28.428;-16.488;2023-06-26T04:07:08;98130.41;;;22.67;60.38
63009;BME280;49099;28.428;-16.488;2023-06-26T04:09:36;98132.31;;;22.66;60.28
63009;BME280;49099;28.428;-16.488;2023-06-26T04:12:03;98133.09;;;22.67;60.27
63009;BME280;49099;28.428;-16.488;2023-06-26T04:14:30;98123.84;;;22.68;60.47
63009;BME280;49099;28.428;-16.488;2023-06-26T04:16:58;98121.22;;;22.71;60.65
63009;BME280;49099;28.428;-16.488;2023-06-26T04:19:29;98118.88;;;22.70;60.64
63009;BME280;49099;28.428;-16.488;2023-06-26T04:21:56;98111.38;;;22.63;61.18
63009;BME280;49099;28.428;-16.488;2023-06-26T04:24:24;98104.19;;;22.51;61.60
63009;BME280;49099;28.428;-16.488;2023-06-26T04:26:52;98096.34;;;22.46;61.89
63009;BME280;49099;28.428;-16.488;2023-06-26T04:29:19;98102.44;;;22.43;61.70
63009;BME280;49099;28.428;-16.488;2023-06-26T04:31:46;98107.06;;;22.43;61.60
63009;BME280;49099;28.428;-16.488;2023-06-26T04:34:13;98103.66;;;22.46;61.77
63009;BME280;49099;28.428;-16.488;2023-06-26T04:36:40;98113.25;;;22.43;61.85
63009;BME280;49099;28.428;-16.488;2023-06-26T04:39:08;98107.06;;;22.43;61.80
63009;BME280;49099;28.428;-16.488;2023-06-26T04:41:35;98100.19;;;22.45;61.70
63009;BME280;49099;28.428;-16.488;2023-06-26T04:44:02;98097.91;;;22.47;61.60
63009;BME280;49099;28.428;-16.488;2023-06-26T04:46:29;98105.59;;;22.45;61.45
63009;BME280;49099;28.428;-16.488;2023-06-26T04:48:57;98102.44;;;22.43;61.52
63009;BME280;49099;28.428;-16.488;2023-06-26T04:51:25;98093.03;;;22.37;61.47
63009;BME280;49099;28.428;-16.488;2023-06-26T04:53:53;98084.41;;;22.32;61.23
63009;BME280;49099;28.428;-16.488;2023-06-26T04:56:21;98089.38;;;22.30;61.22
63009;BME280;49099;28.428;-16.488;2023-06-26T04:58:48;98072.75;;;22.28;61.15
63009;BME280;49099;28.428;-16.488;2023-06-26T05:01:15;98081.22;;;22.26;61.00
63009;BME280;49099;28.428;-16.488;2023-06-26T05:03:42;98094.28;;;22.24;61.21
63009;BME280;49099;28.428;-16.488;2023-06-26T05:06:10;98084.97;;;22.21;61.25
63009;BME280;49099;28.428;-16.488;2023-06-26T05:08:37;98085.03;;;22.25;61.39
63009;BME280;49099;28.428;-16.488;2023-06-26T05:11:04;98085.47;;;22.27;61.09
63009;BME280;49099;28.428;-16.488;2023-06-26T05:13:31;98089.75;;;22.28;61.08
63009;BME280;49099;28.428;-16.488;2023-06-26T05:15:58;98099.41;;;22.29;61.17
63009;BME280;49099;28.428;-16.488;2023-06-26T05:18:25;98099.06;;;22.31;60.86
63009;BME280;49099;28.428;-16.488;2023-06-26T05:20:53;98089.03;;;22.31;61.17
63009;BME280;49099;28.428;-16.488;2023-06-26T05:23:20;98097.56;;;22.33;61.23
63009;BME280;49099;28.428;-16.488;2023-06-26T05:25:48;98089.91;;;22.35;61.20
63009;BME280;49099;28.428;-16.488;2023-06-26T05:28:17;98093.03;;;22.37;61.20
63009;BME280;49099;28.428;-16.488;2023-06-26T05:30:44;98089.19;;;22.38;61.20
63009;BME280;49099;28.428;-16.488;2023-06-26T05:33:12;98084.94;;;22.37;61.08
63009;BME280;49099;28.428;-16.488;2023-06-26T05:35:42;98085.28;;;22.36;61.30
63009;BME280;49099;28.428;-16.488;2023-06-26T05:38:12;98079.19;;;22.39;61.33
63009;BME280;49099;28.428;-16.488;2023-06-26T05:40:40;98080.66;;;22.36;61.45
63009;BME280;49099;28.428;-16.488;2023-06-26T05:43:08;98071.84;;;22.39;61.55
63009;BME280;49099;28.428;-16.488;2023-06-26T05:45:35;98079.09;;;22.35;61.71
63009;BME280;49099;28.428;-16.488;2023-06-26T05:48:02;98088.34;;;22.34;61.89
63009;BME280;49099;28.428;-16.488;2023-06-26T05:50:30;98094.59;;;22.38;61.76
63009;BME280;49099;28.428;-16.488;2023-06-26T05:52:58;98093.41;;;22.36;61.70
63009;BME280;49099;28.428;-16.488;2023-06-26T05:55:25;98100.13;;;22.42;61.89
63009;BME280;49099;28.428;-16.488;2023-06-26T05:57:53;98096.28;;;22.43;61.88
63009;BME280;49099;28.428;-16.488;2023-06-26T06:00:23;98101.84;;;22.50;62.63
63009;BME280;49099;28.428;-16.488;2023-06-26T06:02:50;98104.34;;;22.59;62.51
63009;BME280;49099;28.428;-16.488;2023-06-26T06:05:22;98110.97;;;22.61;61.96
63009;BME280;49099;28.428;-16.488;2023-06-26T06:07:50;98117.94;;;22.62;61.98
63009;BME280;49099;28.428;-16.488;2023-06-26T06:10:17;98124.56;;;22.65;61.70
63009;BME280;49099;28.428;-16.488;2023-06-26T06:12:44;98120.28;;;22.64;61.65
63009;BME280;49099;28.428;-16.488;2023-06-26T06:15:11;98124.56;;;22.65;61.58
63009;BME280;49099;28.428;-16.488;2023-06-26T06:17:38;98126.13;;;22.66;61.58
63009;BME280;49099;28.428;-16.488;2023-06-26T06:20:06;98124.22;;;22.66;61.42
63009;BME280;49099;28.428;-16.488;2023-06-26T06:22:34;98122.97;;;22.64;61.80
63009;BME280;49099;28.428;-16.488;2023-06-26T06:25:01;98121.34;;;22.59;62.17
63009;BME280;49099;28.428;-16.488;2023-06-26T06:27:28;98124.84;;;22.60;62.38
63009;BME280;49099;28.428;-16.488;2023-06-26T06:29:55;98123.09;;;22.51;62.32
63009;BME280;49099;28.428;-16.488;2023-06-26T06:32:22;98121.72;;;22.42;62.73
63009;BME280;49099;28.428;-16.488;2023-06-26T06:34:49;98135.56;;;22.40;63.09
63009;BME280;49099;28.428;-16.488;2023-06-26T06:37:16;98130.25;;;22.44;62.99
63009;BME280;49099;28.428;-16.488;2023-06-26T06:39:44;98122.22;;;22.47;62.80
63009;BME280;49099;28.428;-16.488;2023-06-26T06:42:11;98134.75;;;22.56;62.62
63009;BME280;49099;28.428;-16.488;2023-06-26T06:44:38;98132.94;;;22.60;62.65
63009;BME280;49099;28.428;-16.488;2023-06-26T06:47:05;98136.94;;;22.66;62.53
63009;BME280;49099;28.428;-16.488;2023-06-26T06:49:32;98134.31;;;22.69;62.48
63009;BME280;49099;28.428;-16.488;2023-06-26T06:52:00;98137.09;;;22.73;62.29
63009;BME280;49099;28.428;-16.488;2023-06-26T06:54:27;98140.31;;;22.78;62.49
63009;BME280;49099;28.428;-16.488;2023-06-26T06:56:55;98140.41;;;22.82;62.43
63009;BME280;49099;28.428;-16.488;2023-06-26T06:59:22;98136.66;;;22.87;62.18
63009;BME280;49099;28.428;-16.488;2023-06-26T07:01:49;98141.84;;;22.95;62.07
63009;BME280;49099;28.428;-16.488;2023-06-26T07:04:17;98133.47;;;23.00;61.86
63009;BME280;49099;28.428;-16.488;2023-06-26T07:06:44;98136.97;;;23.01;62.09
63009;BME280;49099;28.428;-16.488;2023-06-26T07:09:11;98136.19;;;23.00;62.33
63009;BME280;49099;28.428;-16.488;2023-06-26T07:11:38;98143.09;;;22.98;62.79
63009;BME280;49099;28.428;-16.488;2023-06-26T07:14:05;98145.44;;;22.99;62.65
63009;BME280;49099;28.428;-16.488;2023-06-26T07:16:32;98140.19;;;23.06;62.72
63009;BME280;49099;28.428;-16.488;2023-06-26T07:19:00;98134.50;;;23.12;62.31
63009;BME280;49099;28.428;-16.488;2023-06-26T07:21:27;98139.25;;;23.18;62.36
63009;BME280;49099;28.428;-16.488;2023-06-26T07:23:54;98136.63;;;23.22;61.88
63009;BME280;49099;28.428;-16.488;2023-06-26T07:26:21;98145.75;;;23.33;61.70
63009;BME280;49099;28.428;-16.488;2023-06-26T07:29:08;98147.75;;;23.36;61.94
63009;BME280;49099;28.428;-16.488;2023-06-26T07:31:35;98138.06;;;23.35;62.58
63009;BME280;49099;28.428;-16.488;2023-06-26T07:34:03;98147.75;;;23.36;62.30
63009;BME280;49099;28.428;-16.488;2023-06-26T07:36:30;98134.63;;;23.38;61.78
63009;BME280;49099;28.428;-16.488;2023-06-26T07:38:57;98138.91;;;23.39;62.13
63009;BME280;49099;28.428;-16.488;2023-06-26T07:41:25;98148.69;;;23.44;62.45
63009;BME280;49099;28.428;-16.488;2023-06-26T07:43:52;98136.84;;;23.52;62.52
63009;BME280;49099;28.428;-16.488;2023-06-26T07:46:19;98136.47;;;23.53;62.32
63009;BME280;49099;28.428;-16.488;2023-06-26T07:48:46;98135.06;;;23.59;62.02
63009;BME280;49099;28.428;-16.488;2023-06-26T07:51:13;98135.50;;;23.61;61.46
63009;BME280;49099;28.428;-16.488;2023-06-26T07:53:41;98128.22;;;23.66;61.83
63009;BME280;49099;28.428;-16.488;2023-06-26T07:56:08;98127.94;;;23.71;61.35
63009;BME280;49099;28.428;-16.488;2023-06-26T07:58:35;98130.72;;;23.74;60.69
63009;BME280;49099;28.428;-16.488;2023-06-26T08:01:05;98114.81;;;23.73;61.59
63009;BME280;49099;28.428;-16.488;2023-06-26T08:03:32;98133.63;;;23.85;62.63
63009;BME280;49099;28.428;-16.488;2023-06-26T08:06:02;98120.91;;;23.89;62.88
63009;BME280;49099;28.428;-16.488;2023-06-26T08:08:30;98134.09;;;23.90;62.73
63009;BME280;49099;28.428;-16.488;2023-06-26T08:10:57;98132.22;;;23.95;63.26
63009;BME280;49099;28.428;-16.488;2023-06-26T08:13:25;98117.19;;;23.97;63.32
63009;BME280;49099;28.428;-16.488;2023-06-26T08:15:52;98127.31;;;24.00;62.72
63009;BME280;49099;28.428;-16.488;2023-06-26T08:18:19;98112.59;;;24.01;62.33
63009;BME280;49099;28.428;-16.488;2023-06-26T08:20:46;98116.19;;;24.05;62.42
63009;BME280;49099;28.428;-16.488;2023-06-26T08:23:13;98108.03;;;24.05;61.66
63009;BME280;49099;28.428;-16.488;2023-06-26T08:25:41;98106.47;;;24.04;61.61
63009;BME280;49099;28.428;-16.488;2023-06-26T08:28:08;98105.22;;;23.98;61.52
63009;BME280;49099;28.428;-16.488;2023-06-26T08:30:35;98111.06;;;24.00;62.05
63009;BME280;49099;28.428;-16.488;2023-06-26T08:33:03;98128.94;;;24.05;61.55
63009;BME280;49099;28.428;-16.488;2023-06-26T08:35:30;98121.47;;;23.98;61.47
63009;BME280;49099;28.428;-16.488;2023-06-26T08:37:57;98125.75;;;23.99;61.75
63009;BME280;49099;28.428;-16.488;2023-06-26T08:40:25;98117.25;;;24.01;61.38
63009;BME280;49099;28.428;-16.488;2023-06-26T08:42:53;98125.88;;;24.06;60.87
63009;BME280;49099;28.428;-16.488;2023-06-26T08:45:21;98137.41;;;24.03;61.32
63009;BME280;49099;28.428;-16.488;2023-06-26T08:47:51;98123.56;;;24.08;61.21
63009;BME280;49099;28.428;-16.488;2023-06-26T08:50:23;98129.84;;;24.12;61.27
63009;BME280;49099;28.428;-16.488;2023-06-26T08:52:58;98140.56;;;24.05;60.72
63009;BME280;49099;28.428;-16.488;2023-06-26T08:55:28;98145.13;;;24.01;59.83
63009;BME280;49099;28.428;-16.488;2023-06-26T08:57:55;98136.75;;;24.10;60.19
63009;BME280;49099;28.428;-16.488;2023-06-26T09:00:24;98135.13;;;24.05;60.52
63009;BME280;49099;28.428;-16.488;2023-06-26T09:02:51;98162.66;;;24.07;60.21
63009;BME280;49099;28.428;-16.488;2023-06-26T09:05:19;98137.66;;;24.17;59.35
63009;BME280;49099;28.428;-16.488;2023-06-26T09:07:46;98161.78;;;24.26;60.03
63009;BME280;49099;28.428;-16.488;2023-06-26T09:10:13;98156.53;;;24.33;58.69
63009;BME280;49099;28.428;-16.488;2023-06-26T09:12:41;98168.06;;;24.30;58.72
63009;BME280;49099;28.428;-16.488;2023-06-26T09:15:08;98144.97;;;24.36;57.63
63009;BME280;49099;28.428;-16.488;2023-06-26T09:17:39;98162.44;;;24.39;58.34
63009;BME280;49099;28.428;-16.488;2023-06-26T09:20:09;98167.91;;;24.42;58.73
63009;BME280;49099;28.428;-16.488;2023-06-26T09:22:38;98159.06;;;24.45;57.87
63009;BME280;49099;28.428;-16.488;2023-06-26T09:25:06;98155.06;;;24.39;58.24
63009;BME280;49099;28.428;-16.488;2023-06-26T09:27:34;98149.66;;;24.39;59.07
63009;BME280;49099;28.428;-16.488;2023-06-26T09:30:06;98142.41;;;24.47;58.86
63009;BME280;49099;28.428;-16.488;2023-06-26T09:32:36;98169.94;;;24.49;59.03
63009;BME280;49099;28.428;-16.488;2023-06-26T09:35:04;98163.38;;;24.50;59.33
63009;BME280;49099;28.428;-16.488;2023-06-26T09:37:32;98156.09;;;24.54;58.77
63009;BME280;49099;28.428;-16.488;2023-06-26T09:39:59;98173.91;;;24.55;58.39
63009;BME280;49099;28.428;-16.488;2023-06-26T09:42:26;98157.66;;;24.55;57.05
63009;BME280;49099;28.428;-16.488;2023-06-26T09:44:54;98181.75;;;24.60;57.74
63009;BME280;49099;28.428;-16.488;2023-06-26T09:47:23;98172.41;;;24.58;59.11
63009;BME280;49099;28.428;-16.488;2023-06-26T09:49:51;98166.38;;;24.68;59.09
63009;BME280;49099;28.428;-16.488;2023-06-26T09:52:26;98185.75;;;24.70;59.80
63009;BME280;49099;28.428;-16.488;2023-06-26T09:55:10;98181.16;;;24.74;60.84
63009;BME280;49099;28.428;-16.488;2023-06-26T09:57:38;98191.22;;;24.73;60.89
63009;BME280;49099;28.428;-16.488;2023-06-26T10:00:05;98190.09;;;24.74;60.46
63009;BME280;49099;28.428;-16.488;2023-06-26T10:02:34;98201.56;;;24.64;61.32
63009;BME280;49099;28.428;-16.488;2023-06-26T10:05:02;98201.94;;;24.63;61.46
63009;BME280;49099;28.428;-16.488;2023-06-26T10:07:30;98194.97;;;24.65;61.57
63009;BME280;49099;28.428;-16.488;2023-06-26T10:09:57;98205.84;;;24.65;60.40
63009;BME280;49099;28.428;-16.488;2023-06-26T10:12:29;98211.75;;;24.71;59.59
63009;BME280;49099;28.428;-16.488;2023-06-26T10:14:57;98214.75;;;24.66;59.90
63009;BME280;49099;28.428;-16.488;2023-06-26T10:17:28;98225.59;;;24.66;60.45
63009;BME280;49099;28.428;-16.488;2023-06-26T10:19:58;98221.41;;;24.68;60.56
63009;BME280;49099;28.428;-16.488;2023-06-26T10:22:37;98220.28;;;24.73;60.37
63009;BME280;49099;28.428;-16.488;2023-06-26T10:25:07;98229.31;;;24.81;59.56
63009;BME280;49099;28.428;-16.488;2023-06-26T10:27:38;98211.88;;;24.82;59.99
63009;BME280;49099;28.428;-16.488;2023-06-26T10:30:12;98215.88;;;24.88;59.90
63009;BME280;49099;28.428;-16.488;2023-06-26T10:32:40;98224.78;;;24.88;60.07
63009;BME280;49099;28.428;-16.488;2023-06-26T10:35:09;98222.44;;;24.87;60.53
63009;BME280;49099;28.428;-16.488;2023-06-26T10:37:44;98222.81;;;24.85;60.72
63009;BME280;49099;28.428;-16.488;2023-06-26T10:40:13;98228.59;;;24.84;61.38
63009;BME280;49099;28.428;-16.488;2023-06-26T10:42:40;98228.59;;;24.84;61.23
63009;BME280;49099;28.428;-16.488;2023-06-26T10:45:14;98222.03;;;24.85;61.36
63009;BME280;49099;28.428;-16.488;2023-06-26T10:47:46;98213.25;;;24.95;60.61
63009;BME280;49099;28.428;-16.488;2023-06-26T10:50:25;98223.50;;;25.05;60.01
63009;BME280;49099;28.428;-16.488;2023-06-26T10:56:04;98216.78;;;25.22;58.89
63009;BME280;49099;28.428;-16.488;2023-06-26T10:58:42;98208.41;;;25.34;57.83
63009;BME280;49099;28.428;-16.488;2023-06-26T11:03:40;98205.50;;;25.50;57.14
63009;BME280;49099;28.428;-16.488;2023-06-26T11:06:14;98212.50;;;25.51;57.31
63009;BME280;49099;28.428;-16.488;2023-06-26T11:08:48;98211.81;;;25.58;57.31
63009;BME280;49099;28.428;-16.488;2023-06-26T11:11:16;98217.59;;;25.56;57.48
63009;BME280;49099;28.428;-16.488;2023-06-26T11:13:46;98213.66;;;25.50;57.57
63009;BME280;49099;28.428;-16.488;2023-06-26T11:16:13;98206.84;;;25.63;57.47
63009;BME280;49099;28.428;-16.488;2023-06-26T11:18:41;98202.56;;;25.62;57.39
63009;BME280;49099;28.428;-16.488;2023-06-26T11:21:10;98196.16;;;25.77;57.33
63009;BME280;49099;28.428;-16.488;2023-06-26T11:23:41;98203.19;;;25.82;57.33
63009;BME280;49099;28.428;-16.488;2023-06-26T11:26:17;98196.66;;;25.90;56.80
63009;BME280;49099;28.428;-16.488;2023-06-26T11:31:35;98206.09;;;26.00;56.68
63009;BME280;49099;28.428;-16.488;2023-06-26T11:34:08;98199.94;;;26.06;57.47
63009;BME280;49099;28.428;-16.488;2023-06-26T11:36:42;98203.00;;;26.01;56.88
63009;BME280;49099;28.428;-16.488;2023-06-26T11:39:12;98213.84;;;25.98;57.00
63009;BME280;49099;28.428;-16.488;2023-06-26T11:41:40;98205.53;;;25.83;57.42
63009;BME280;49099;28.428;-16.488;2023-06-26T11:44:09;98197.38;;;25.83;57.43
63009;BME280;49099;28.428;-16.488;2023-06-26T11:46:41;98215.28;;;25.88;56.73
63009;BME280;49099;28.428;-16.488;2023-06-26T11:49:08;98202.16;;;25.94;56.81
63009;BME280;49099;28.428;-16.488;2023-06-26T11:51:35;98216.97;;;26.00;56.43
63009;BME280;49099;28.428;-16.488;2023-06-26T11:54:04;98204.97;;;26.04;56.43
63009;BME280;49099;28.428;-16.488;2023-06-26T11:56:31;98209.84;;;26.25;56.21
63009;BME280;49099;28.428;-16.488;2023-06-26T11:59:02;98211.84;;;26.32;56.59
63009;BME280;49099;28.428;-16.488;2023-06-26T12:01:36;98204.00;;;26.23;57.07
63009;BME280;49099;28.428;-16.488;2023-06-26T12:04:05;98205.56;;;26.24;57.12
63009;BME280;49099;28.428;-16.488;2023-06-26T12:06:38;98205.50;;;26.17;56.85
63009;BME280;49099;28.428;-16.488;2023-06-26T12:09:10;98206.38;;;26.28;56.85
63009;BME280;49099;28.428;-16.488;2023-06-26T12:11:40;98201.72;;;26.29;56.79
63009;BME280;49099;28.428;-16.488;2023-06-26T12:14:08;98201.75;;;26.32;56.87
63009;BME280;49099;28.428;-16.488;2023-06-26T12:16:36;98198.69;;;26.37;56.99
63009;BME280;49099;28.428;-16.488;2023-06-26T12:19:05;98198.81;;;26.52;56.88
63009;BME280;49099;28.428;-16.488;2023-06-26T12:24:10;98198.88;;;26.55;56.99
63009;BME280;49099;28.428;-16.488;2023-06-26T12:26:37;98204.28;;;26.52;57.16
63009;BME280;49099;28.428;-16.488;2023-06-26T12:29:05;98207.34;;;26.47;57.80
63009;BME280;49099;28.428;-16.488;2023-06-26T12:31:34;98208.84;;;26.41;57.53
63009;BME280;49099;28.428;-16.488;2023-06-26T12:34:12;98210.72;;;26.36;58.01
63009;BME280;49099;28.428;-16.488;2023-06-26T12:36:46;98234.38;;;26.32;58.50
63009;BME280;49099;28.428;-16.488;2023-06-26T12:39:19;98213.03;;;26.34;58.63
63009;BME280;49099;28.428;-16.488;2023-06-26T12:41:53;98220.09;;;26.39;57.75
63009;BME280;49099;28.428;-16.488;2023-06-26T12:44:28;98219.75;;;26.44;57.96
63009;BME280;49099;28.428;-16.488;2023-06-26T12:47:00;98212.03;;;26.53;57.53
63009;BME280;49099;28.428;-16.488;2023-06-26T12:49:34;98215.22;;;26.59;57.34
63009;BME280;49099;28.428;-16.488;2023-06-26T12:52:04;98209.81;;;26.66;56.57
63009;BME280;49099;28.428;-16.488;2023-06-26T12:54:34;98207.53;;;26.72;56.40
63009;BME280;49099;28.428;-16.488;2023-06-26T12:57:01;98207.66;;;26.86;56.62
63009;BME280;49099;28.428;-16.488;2023-06-26T12:59:31;98199.91;;;26.91;56.22
63009;BME280;49099;28.428;-16.488;2023-06-26T13:01:59;98193.72;;;26.94;56.04
63009;BME280;49099;28.428;-16.488;2023-06-26T13:04:27;98196.06;;;27.00;55.95
63009;BME280;49099;28.428;-16.488;2023-06-26T13:06:55;98195.31;;;27.03;56.21
63009;BME280;49099;28.428;-16.488;2023-06-26T13:09:23;98193.75;;;27.02;56.60